Time;durP1;ratioP1;P1;durP2;ratioP2;P2;SDS_P1;SDS_P2;PMS_P1;PMS_P2;Temp;Humidity;BMP_temperature;BMP_pressure;BME280_temperature;BME280_humidity;BME280_pressure;Samples;Min_cycle;Max_cycle;Signal;HPM_P1;HPM_P2
2022/02/18 00:01:01;;;;;;;13.93;4.97;;;;;;;;;;5040429;28;20227;-69
2022/02/18 00:03:30;;;;;;;9.63;4.60;;;;;;;;;;5040622;28;20667;-69
2022/02/18 00:05:58;;;;;;;11.60;4.53;;;;;;;;;;5040465;28;20320;-69
2022/02/18 00:08:29;;;;;;;15.27;5.80;;;;;;;;;;5039955;28;20207;-69
2022/02/18 00:10:57;;;;;;;13.90;4.93;;;;;;;;;;5040142;28;20342;-69
2022/02/18 00:13:25;;;;;;;11.60;5.37;;;;;;;;;;5040527;28;20207;-69
2022/02/18 00:15:54;;;;;;;16.70;5.57;;;;;;;;;;5039887;28;20311;-68
2022/02/18 00:18:22;;;;;;;14.30;5.53;;;;;;;;;;5040190;28;20262;-69
2022/02/18 00:20:54;;;;;;;12.37;5.57;;;;;;;;;;5021724;28;20771;-69
2022/02/18 00:23:22;;;;;;;13.07;5.47;;;;;;;;;;5019888;28;20712;-69
2022/02/18 00:25:50;;;;;;;12.83;4.97;;;;;;;;;;5020003;28;20773;-69
2022/02/18 00:28:18;;;;;;;13.80;5.10;;;;;;;;;;5020408;28;20302;-69
2022/02/18 00:30:46;;;;;;;9.73;5.43;;;;;;;;;;5019941;28;20267;-69
2022/02/18 00:33:15;;;;;;;11.17;4.73;;;;;;;;;;5020343;28;20295;-69
2022/02/18 00:35:43;;;;;;;11.57;4.73;;;;;;;;;;5026918;28;20311;-69
2022/02/18 00:38:15;;;;;;;9.57;4.33;;;;;;;;;;5039645;28;20246;-69
2022/02/18 00:40:45;;;;;;;11.30;5.33;;;;;;;;;;5039901;28;20223;-69
2022/02/18 00:43:13;;;;;;;18.07;5.30;;;;;;;;;;5039659;28;20239;-69
2022/02/18 00:45:41;;;;;;;11.90;5.30;;;;;;;;;;5040121;28;20285;-69
2022/02/18 00:48:10;;;;;;;10.93;4.87;;;;;;;;;;5039588;28;20262;-69
2022/02/18 00:50:42;;;;;;;14.77;5.53;;;;;;;;;;5039884;28;20207;-69
2022/02/18 00:53:10;;;;;;;16.73;5.33;;;;;;;;;;5039066;28;20243;-69
2022/02/18 00:55:38;;;;;;;14.30;5.57;;;;;;;;;;5039171;28;20249;-69
2022/02/18 00:58:06;;;;;;;10.90;5.47;;;;;;;;;;5039652;28;20287;-69
2022/02/18 01:00:34;;;;;;;13.10;5.43;;;;;;;;;;5039406;28;20239;-69
2022/02/18 01:03:02;;;;;;;13.00;5.40;;;;;;;;;;5039719;28;20207;-69
2022/02/18 01:05:30;;;;;;;9.30;5.57;;;;;;;;;;5039066;28;20676;-69
2022/02/18 01:08:00;;;;;;;15.20;5.83;;;;;;;;;;5038941;28;20294;-69
2022/02/18 01:10:28;;;;;;;11.90;6.13;;;;;;;;;;5039005;28;20322;-69
2022/02/18 01:12:56;;;;;;;11.60;5.73;;;;;;;;;;5039533;28;20290;-69
2022/02/18 01:15:24;;;;;;;13.67;5.90;;;;;;;;;;5039325;28;20288;-69
2022/02/18 01:17:52;;;;;;;16.67;5.43;;;;;;;;;;5039073;28;20613;-69
2022/02/18 01:20:20;;;;;;;11.53;5.77;;;;;;;;;;5039039;28;20634;-69
2022/02/18 01:22:48;;;;;;;13.80;6.33;;;;;;;;;;5038534;28;20670;-69
2022/02/18 01:25:18;;;;;;;11.70;6.00;;;;;;;;;;5038799;28;20310;-69
2022/02/18 01:27:46;;;;;;;11.47;5.50;;;;;;;;;;5039054;28;20211;-69
2022/02/18 01:30:14;;;;;;;11.27;5.80;;;;;;;;;;5039121;28;20242;-69
2022/02/18 01:32:42;;;;;;;9.13;5.13;;;;;;;;;;5039016;28;20698;-69
2022/02/18 01:35:10;;;;;;;11.17;5.50;;;;;;;;;;5038714;28;20254;-69
2022/02/18 01:37:39;;;;;;;12.87;6.07;;;;;;;;;;5038508;28;20341;-69
2022/02/18 01:40:07;;;;;;;17.10;5.93;;;;;;;;;;5038425;28;20204;-69
2022/02/18 01:42:36;;;;;;;10.50;5.67;;;;;;;;;;5038539;28;20266;-69
2022/02/18 01:45:05;;;;;;;9.43;5.50;;;;;;;;;;5038693;28;20239;-69
2022/02/18 01:47:33;;;;;;;11.60;5.43;;;;;;;;;;5038658;28;20207;-69
2022/02/18 01:50:01;;;;;;;11.57;6.07;;;;;;;;;;5038624;28;20291;-69
2022/02/18 01:52:32;;;;;;;13.37;5.80;;;;;;;;;;5037903;28;20753;-69
2022/02/18 01:55:00;;;;;;;10.23;5.50;;;;;;;;;;5038355;28;20729;-69
2022/02/18 01:57:29;;;;;;;12.10;5.20;;;;;;;;;;5038382;28;20215;-69
2022/02/18 01:59:58;;;;;;;14.17;5.43;;;;;;;;;;5038393;28;20231;-69
2022/02/18 02:02:26;;;;;;;17.70;6.13;;;;;;;;;;5038381;28;20314;-69
2022/02/18 02:04:54;;;;;;;13.07;5.33;;;;;;;;;;5038021;28;20737;-69
2022/02/18 02:07:22;;;;;;;10.00;5.50;;;;;;;;;;5037474;28;20290;-69
2022/02/18 02:09:50;;;;;;;12.53;5.37;;;;;;;;;;5038026;28;20215;-69
2022/02/18 02:12:18;;;;;;;16.97;6.20;;;;;;;;;;5038263;28;20223;-69
2022/02/18 02:14:46;;;;;;;16.63;6.23;;;;;;;;;;5037822;28;20239;-69
2022/02/18 02:17:16;;;;;;;14.00;6.00;;;;;;;;;;5037832;28;20655;-69
2022/02/18 02:19:44;;;;;;;14.83;5.70;;;;;;;;;;5027991;28;20208;-69
2022/02/18 02:22:14;;;;;;;11.73;5.33;;;;;;;;;;5017982;28;20256;-69
2022/02/18 02:24:46;;;;;;;9.20;5.27;;;;;;;;;;5017959;28;20615;-69
2022/02/18 02:27:14;;;;;;;11.80;5.47;;;;;;;;;;5017893;28;20662;-69
2022/02/18 02:29:42;;;;;;;11.70;5.50;;;;;;;;;;5018232;28;20291;-69
2022/02/18 02:32:10;;;;;;;17.70;6.70;;;;;;;;;;5018110;28;20683;-69
2022/02/18 02:34:38;;;;;;;16.57;6.50;;;;;;;;;;5017859;28;20212;-69
2022/02/18 02:37:06;;;;;;;15.17;5.77;;;;;;;;;;5017808;28;20259;-70
2022/02/18 02:39:34;;;;;;;12.90;5.43;;;;;;;;;;5017948;28;20208;-69
2022/02/18 02:42:04;;;;;;;13.50;5.87;;;;;;;;;;5037535;28;20307;-69
2022/02/18 02:44:32;;;;;;;11.40;5.07;;;;;;;;;;5037553;28;20648;-70
2022/02/18 02:47:00;;;;;;;12.30;6.00;;;;;;;;;;5037790;28;20231;-69
2022/02/18 02:49:28;;;;;;;14.43;5.77;;;;;;;;;;5037744;28;20207;-69
2022/02/18 02:51:57;;;;;;;13.97;5.33;;;;;;;;;;5037639;28;20258;-69
2022/02/18 02:54:25;;;;;;;11.03;5.07;;;;;;;;;;5037383;28;20211;-69
2022/02/18 02:56:55;;;;;;;10.70;5.57;;;;;;;;;;5037379;28;20219;-69
2022/02/18 02:59:24;;;;;;;12.63;4.93;;;;;;;;;;5037278;28;20246;-69
2022/02/18 03:01:53;;;;;;;13.67;5.70;;;;;;;;;;5037344;28;20212;-69
2022/02/18 03:04:21;;;;;;;13.30;5.40;;;;;;;;;;5037617;28;20250;-70
2022/02/18 03:06:49;;;;;;;16.30;5.23;;;;;;;;;;5037315;28;20593;-69
2022/02/18 03:09:37;;;;;;;10.93;5.27;;;;;;;;;;5037423;28;20675;-69
2022/02/18 03:12:05;;;;;;;11.67;5.17;;;;;;;;;;5037239;28;20749;-69
2022/02/18 03:14:34;;;;;;;8.57;5.30;;;;;;;;;;5037610;28;20218;-69
2022/02/18 03:17:03;;;;;;;14.80;5.93;;;;;;;;;;5037032;28;20582;-69
2022/02/18 03:19:31;;;;;;;10.67;4.90;;;;;;;;;;5029354;28;20569;-69
2022/02/18 03:21:59;;;;;;;11.77;5.13;;;;;;;;;;5021225;28;20663;-69
2022/02/18 03:24:27;;;;;;;8.67;5.13;;;;;;;;;;5021419;28;20215;-69
2022/02/18 03:26:55;;;;;;;9.17;4.70;;;;;;;;;;5021340;28;20267;-69
2022/02/18 03:29:25;;;;;;;10.47;5.43;;;;;;;;;;5021508;28;20208;-69
2022/02/18 03:31:55;;;;;;;8.53;4.80;;;;;;;;;;5021234;28;20577;-69
2022/02/18 03:34:23;;;;;;;10.23;5.50;;;;;;;;;;5021096;28;20687;-69
2022/02/18 03:36:51;;;;;;;10.83;5.50;;;;;;;;;;5021521;28;20232;-69
2022/02/18 03:39:20;;;;;;;12.00;5.80;;;;;;;;;;5020958;28;20204;-69
2022/02/18 03:41:49;;;;;;;9.00;4.43;;;;;;;;;;5038802;28;20258;-69
2022/02/18 03:44:17;;;;;;;9.10;4.30;;;;;;;;;;5041013;28;20258;-69
2022/02/18 03:46:45;;;;;;;9.23;5.03;;;;;;;;;;5040584;28;20270;-69
2022/02/18 03:49:14;;;;;;;13.70;5.20;;;;;;;;;;5041045;28;20214;-69
2022/02/18 03:51:42;;;;;;;12.50;4.87;;;;;;;;;;5040971;28;20235;-69
2022/02/18 03:54:11;;;;;;;15.47;5.27;;;;;;;;;;5040704;28;20243;-70
2022/02/18 03:56:39;;;;;;;13.43;5.50;;;;;;;;;;5040510;28;20767;-69
2022/02/18 03:59:07;;;;;;;9.83;4.83;;;;;;;;;;5040579;28;20215;-69
2022/02/18 04:01:35;;;;;;;12.77;5.07;;;;;;;;;;5040774;28;20238;-69
2022/02/18 04:04:03;;;;;;;10.43;4.60;;;;;;;;;;5040424;28;20616;-69
2022/02/18 04:06:32;;;;;;;12.30;5.20;;;;;;;;;;5040587;28;20261;-69
2022/02/18 04:09:01;;;;;;;11.47;4.87;;;;;;;;;;5040137;28;20211;-69
2022/02/18 04:11:29;;;;;;;13.77;5.70;;;;;;;;;;5040622;28;20239;-69
2022/02/18 04:13:57;;;;;;;9.10;4.13;;;;;;;;;;5040442;28;20204;-69
2022/02/18 04:16:25;;;;;;;12.20;4.57;;;;;;;;;;5040552;28;20253;-69
2022/02/18 04:18:56;;;;;;;11.70;5.00;;;;;;;;;;5036320;28;20204;-69
2022/02/18 04:21:25;;;;;;;11.03;4.30;;;;;;;;;;5020807;28;20247;-69
2022/02/18 04:23:54;;;;;;;10.83;5.20;;;;;;;;;;5019962;28;20265;-69
2022/02/18 04:26:22;;;;;;;6.53;3.93;;;;;;;;;;5020459;28;20228;-69
2022/02/18 04:28:50;;;;;;;10.40;4.83;;;;;;;;;;5020220;28;20629;-70
2022/02/18 04:31:18;;;;;;;15.43;5.20;;;;;;;;;;5019730;28;20212;-69
2022/02/18 04:33:46;;;;;;;15.40;5.23;;;;;;;;;;5020238;28;20747;-69
2022/02/18 04:36:14;;;;;;;12.47;5.20;;;;;;;;;;5020236;28;20270;-69
2022/02/18 04:38:42;;;;;;;8.27;4.40;;;;;;;;;;5020087;28;20216;-69
2022/02/18 04:41:12;;;;;;;8.00;4.50;;;;;;;;;;5033008;28;20209;-70
2022/02/18 04:43:40;;;;;;;15.17;4.67;;;;;;;;;;5039715;28;20227;-70
2022/02/18 04:46:08;;;;;;;9.80;4.30;;;;;;;;;;5039914;28;20273;-70
2022/02/18 04:48:36;;;;;;;9.23;4.97;;;;;;;;;;5039657;28;20235;-70
2022/02/18 04:51:04;;;;;;;11.37;4.13;;;;;;;;;;5039740;28;20208;-69
2022/02/18 04:53:37;;;;;;;10.30;4.33;;;;;;;;;;5039576;28;20204;-69
2022/02/18 04:56:07;;;;;;;10.37;4.53;;;;;;;;;;5039254;28;20227;-69
2022/02/18 04:58:37;;;;;;;10.27;4.27;;;;;;;;;;5039718;28;20207;-69
2022/02/18 05:01:09;;;;;;;10.50;4.93;;;;;;;;;;5037930;28;20207;-69
2022/02/18 05:03:37;;;;;;;13.03;4.77;;;;;;;;;;5038483;28;20623;-69
2022/02/18 05:06:06;;;;;;;15.43;7.40;;;;;;;;;;5037529;28;20219;-68
2022/02/18 05:08:34;;;;;;;16.97;7.43;;;;;;;;;;5037151;28;20254;-69
2022/02/18 05:11:02;;;;;;;15.03;5.80;;;;;;;;;;5038261;28;20231;-69
2022/02/18 05:13:30;;;;;;;11.43;5.13;;;;;;;;;;5038133;28;20218;-69
2022/02/18 05:16:01;;;;;;;11.67;5.27;;;;;;;;;;5039066;28;20223;-69
2022/02/18 05:18:30;;;;;;;11.70;4.57;;;;;;;;;;5039205;28;20210;-69
2022/02/18 05:20:58;;;;;;;11.13;4.03;;;;;;;;;;5019501;28;20212;-69
2022/02/18 05:23:26;;;;;;;7.60;4.13;;;;;;;;;;5019129;28;20236;-69
2022/02/18 05:25:54;;;;;;;6.70;4.07;;;;;;;;;;5025714;28;20228;-69
2022/02/18 05:28:22;;;;;;;7.13;3.87;;;;;;;;;;5038631;28;20273;-69
2022/02/18 05:30:50;;;;;;;14.30;4.47;;;;;;;;;;5038945;28;20211;-69
2022/02/18 05:33:20;;;;;;;7.03;4.60;;;;;;;;;;5038039;28;20208;-69
2022/02/18 05:35:48;;;;;;;8.07;4.33;;;;;;;;;;5034945;28;20257;-69
2022/02/18 05:38:16;;;;;;;9.47;4.30;;;;;;;;;;5036608;28;20195;-69
2022/02/18 05:40:44;;;;;;;9.23;4.27;;;;;;;;;;5037124;28;20699;-69
2022/02/18 05:43:12;;;;;;;16.83;4.63;;;;;;;;;;5036180;28;20208;-69
2022/02/18 05:45:40;;;;;;;13.53;4.90;;;;;;;;;;5036898;28;20698;-69
2022/02/18 05:48:08;;;;;;;11.93;5.07;;;;;;;;;;5037030;28;20249;-69
2022/02/18 05:50:38;;;;;;;11.97;5.13;;;;;;;;;;5036704;28;20630;-69
2022/02/18 05:53:06;;;;;;;7.07;4.30;;;;;;;;;;5036594;28;20667;-69
2022/02/18 05:55:34;;;;;;;8.87;4.60;;;;;;;;;;5037026;28;20257;-69
2022/02/18 05:58:02;;;;;;;9.47;4.20;;;;;;;;;;5036456;28;20262;-69
2022/02/18 06:00:30;;;;;;;10.87;4.63;;;;;;;;;;5036649;28;20204;-71
2022/02/18 06:02:58;;;;;;;9.47;4.37;;;;;;;;;;5036941;28;20207;-71
2022/02/18 06:05:26;;;;;;;12.97;5.10;;;;;;;;;;5036255;28;20259;-71
2022/02/18 06:07:56;;;;;;;9.33;5.10;;;;;;;;;;5036967;28;20250;-71
2022/02/18 06:10:24;;;;;;;12.23;4.70;;;;;;;;;;5037011;28;20235;-72
2022/02/18 06:12:52;;;;;;;10.23;4.70;;;;;;;;;;5038013;28;20725;-71
2022/02/18 06:15:20;;;;;;;10.33;5.10;;;;;;;;;;5037820;28;20255;-71
2022/02/18 06:17:49;;;;;;;13.10;5.00;;;;;;;;;;5038040;28;20203;-71
2022/02/18 06:20:17;;;;;;;12.77;5.37;;;;;;;;;;5023061;28;20319;-71
2022/02/18 06:22:45;;;;;;;12.20;5.20;;;;;;;;;;5018129;28;20312;-71
2022/02/18 06:25:14;;;;;;;11.47;4.93;;;;;;;;;;5017959;28;20274;-71
2022/02/18 06:27:44;;;;;;;12.00;5.47;;;;;;;;;;5018141;28;20219;-71
2022/02/18 06:30:13;;;;;;;15.50;5.57;;;;;;;;;;5018115;28;20208;-71
2022/02/18 06:32:43;;;;;;;12.20;5.40;;;;;;;;;;5018064;28;20212;-71
2022/02/18 06:35:11;;;;;;;9.50;4.53;;;;;;;;;;5018136;28;20671;-71
2022/02/18 06:37:39;;;;;;;10.37;5.23;;;;;;;;;;5017939;28;20208;-71
2022/02/18 06:40:08;;;;;;;14.07;5.53;;;;;;;;;;5021983;28;20203;-71
2022/02/18 06:42:37;;;;;;;11.20;4.77;;;;;;;;;;5036348;28;20802;-69
2022/02/18 06:45:06;;;;;;;10.57;5.40;;;;;;;;;;5035927;28;20227;-70
2022/02/18 06:47:34;;;;;;;12.10;4.93;;;;;;;;;;5036029;28;20724;-68
2022/02/18 06:50:02;;;;;;;11.90;4.43;;;;;;;;;;5036626;28;20234;-69
2022/02/18 06:52:30;;;;;;;12.03;4.77;;;;;;;;;;5037463;28;20207;-70
2022/02/18 06:54:58;;;;;;;12.67;4.40;;;;;;;;;;5037213;28;20231;-72
2022/02/18 06:57:26;;;;;;;15.27;4.80;;;;;;;;;;5037661;28;20207;-71
2022/02/18 06:59:56;;;;;;;16.33;5.47;;;;;;;;;;5037555;28;20207;-71
2022/02/18 07:02:24;;;;;;;11.93;4.40;;;;;;;;;;5037742;28;20311;-71
2022/02/18 07:04:52;;;;;;;12.47;5.17;;;;;;;;;;5037574;28;20261;-71
2022/02/18 07:07:20;;;;;;;12.07;4.97;;;;;;;;;;5036865;28;20250;-71
2022/02/18 07:09:48;;;;;;;13.10;4.57;;;;;;;;;;5037286;28;20250;-69
2022/02/18 07:12:16;;;;;;;14.33;4.70;;;;;;;;;;5037239;28;20239;-70
2022/02/18 07:14:44;;;;;;;12.53;5.67;;;;;;;;;;5035647;28;20195;-68
2022/02/18 07:17:14;;;;;;;9.10;4.73;;;;;;;;;;5036495;28;20254;-71
2022/02/18 07:19:42;;;;;;;18.23;6.87;;;;;;;;;;5030122;28;20196;-71
2022/02/18 07:22:11;;;;;;;15.33;5.90;;;;;;;;;;5027420;28;20207;-72
2022/02/18 07:24:39;;;;;;;14.97;5.57;;;;;;;;;;5029042;28;20734;-69
2022/02/18 07:27:07;;;;;;;19.80;7.57;;;;;;;;;;5032178;28;20223;-71
2022/02/18 07:29:35;;;;;;;14.90;6.57;;;;;;;;;;5028839;28;20591;-71
2022/02/18 07:32:03;;;;;;;15.97;7.83;;;;;;;;;;5019699;28;20200;-72
2022/02/18 07:34:33;;;;;;;13.43;6.80;;;;;;;;;;5019080;28;20201;-72
2022/02/18 07:37:01;;;;;;;19.67;7.33;;;;;;;;;;5024107;28;20223;-71
2022/02/18 07:39:29;;;;;;;17.97;6.70;;;;;;;;;;5030726;28;20250;-70
2022/02/18 07:41:57;;;;;;;14.93;6.67;;;;;;;;;;5030827;28;20212;-72
2022/02/18 07:44:25;;;;;;;13.83;5.73;;;;;;;;;;5029171;28;20200;-71
2022/02/18 07:46:54;;;;;;;14.53;5.73;;;;;;;;;;5036390;28;20784;-72
2022/02/18 07:49:43;;;;;;;10.20;5.80;;;;;;;;;;5036728;28;20302;-72
2022/02/18 07:52:12;;;;;;;11.30;5.80;;;;;;;;;;5036307;28;20235;-71
2022/02/18 07:54:40;;;;;;;14.93;6.10;;;;;;;;;;5036654;28;20212;-72
2022/02/18 07:57:08;;;;;;;17.23;6.30;;;;;;;;;;5036480;28;20238;-71
2022/02/18 07:59:36;;;;;;;12.63;5.90;;;;;;;;;;5037003;28;20218;-71
2022/02/18 08:02:05;;;;;;;13.63;5.87;;;;;;;;;;5037216;28;20678;-71
2022/02/18 08:04:33;;;;;;;19.37;5.77;;;;;;;;;;5036624;28;20211;-71
2022/02/18 08:07:10;;;;;;;9.57;4.40;;;;;;;;;;5038880;28;20258;-71
2022/02/18 08:09:38;;;;;;;8.50;4.20;;;;;;;;;;5027392;28;20204;-71
2022/02/18 08:12:07;;;;;;;8.90;4.13;;;;;;;;;;5039683;28;20794;-71
2022/02/18 08:14:35;;;;;;;11.67;4.20;;;;;;;;;;5040118;28;20690;-71
2022/02/18 08:17:03;;;;;;;9.10;4.03;;;;;;;;;;5040015;28;20224;-72
2022/02/18 08:19:31;;;;;;;8.43;3.80;;;;;;;;;;5032108;28;20211;-71
2022/02/18 08:22:02;;;;;;;19.07;4.43;;;;;;;;;;5020213;28;20263;-72
2022/02/18 08:24:36;;;;;;;8.43;4.17;;;;;;;;;;5019990;28;20682;-71
2022/02/18 08:27:06;;;;;;;8.10;4.50;;;;;;;;;;5020144;28;20236;-71
2022/02/18 08:29:35;;;;;;;10.50;4.63;;;;;;;;;;5020321;28;20216;-71
2022/02/18 08:32:03;;;;;;;8.67;4.40;;;;;;;;;;5020442;28;20216;-71
2022/02/18 08:34:31;;;;;;;7.97;4.83;;;;;;;;;;5020406;28;20208;-71
2022/02/18 08:37:01;;;;;;;8.37;5.40;;;;;;;;;;5019907;28;20231;-70
2022/02/18 08:39:29;;;;;;;11.37;4.37;;;;;;;;;;5020010;28;20208;-72
2022/02/18 08:41:59;;;;;;;8.10;4.20;;;;;;;;;;5038832;28;20278;-72
2022/02/18 08:44:27;;;;;;;8.93;4.33;;;;;;;;;;5039400;28;20203;-72
2022/02/18 08:46:55;;;;;;;6.27;4.40;;;;;;;;;;5039464;28;20295;-72
2022/02/18 08:49:23;;;;;;;7.97;4.17;;;;;;;;;;5039485;28;20261;-72
2022/02/18 08:51:51;;;;;;;6.73;4.33;;;;;;;;;;5039131;28;20247;-72
2022/02/18 08:54:19;;;;;;;10.30;4.53;;;;;;;;;;5039226;28;20207;-72
2022/02/18 08:56:47;;;;;;;5.53;3.20;;;;;;;;;;5039652;28;20224;-72
2022/02/18 08:59:17;;;;;;;9.57;3.50;;;;;;;;;;5039317;28;20211;-73
2022/02/18 09:01:46;;;;;;;6.53;3.20;;;;;;;;;;5039269;28;20258;-72
2022/02/18 09:04:14;;;;;;;7.23;3.40;;;;;;;;;;5039388;28;20211;-72
2022/02/18 09:06:42;;;;;;;4.83;3.17;;;;;;;;;;5038972;28;20269;-72
2022/02/18 09:09:10;;;;;;;4.40;2.87;;;;;;;;;;5038836;28;20211;-72
2022/02/18 09:11:40;;;;;;;6.80;2.70;;;;;;;;;;5038763;28;20239;-72
2022/02/18 09:14:08;;;;;;;5.00;2.87;;;;;;;;;;5038969;28;20745;-72
2022/02/18 09:16:38;;;;;;;7.23;3.97;;;;;;;;;;5038992;28;20726;-72
2022/02/18 09:19:06;;;;;;;3.37;2.77;;;;;;;;;;5033816;28;20312;-72
2022/02/18 09:21:34;;;;;;;4.17;2.50;;;;;;;;;;5019173;28;20243;-72
2022/02/18 09:24:02;;;;;;;4.10;2.83;;;;;;;;;;5018801;28;20219;-72
2022/02/18 09:26:30;;;;;;;8.33;3.27;;;;;;;;;;5019057;28;20270;-72
2022/02/18 09:28:58;;;;;;;4.03;3.07;;;;;;;;;;5018759;28;20615;-72
2022/02/18 09:31:26;;;;;;;4.13;2.57;;;;;;;;;;5019008;28;20205;-72
2022/02/18 09:33:56;;;;;;;6.47;2.73;;;;;;;;;;5018816;28;20640;-72
2022/02/18 09:36:24;;;;;;;3.80;2.77;;;;;;;;;;5018930;28;20232;-72
2022/02/18 09:38:52;;;;;;;7.27;2.60;;;;;;;;;;5018326;28;20235;-72
2022/02/18 09:41:20;;;;;;;3.53;2.80;;;;;;;;;;5032395;28;20203;-72
2022/02/18 09:43:50;;;;;;;3.23;2.17;;;;;;;;;;5038589;28;20214;-72
2022/02/18 09:46:19;;;;;;;4.83;2.50;;;;;;;;;;5038365;28;20274;-72
2022/02/18 09:48:48;;;;;;;4.87;2.50;;;;;;;;;;5038410;28;20270;-72
2022/02/18 09:51:19;;;;;;;4.30;2.37;;;;;;;;;;5038046;28;20273;-72
2022/02/18 09:53:47;;;;;;;3.70;2.27;;;;;;;;;;5037804;28;20607;-72
2022/02/18 09:56:16;;;;;;;6.07;2.27;;;;;;;;;;5037840;28;20274;-72
2022/02/18 09:58:44;;;;;;;4.70;2.80;;;;;;;;;;5038245;28;20204;-72
2022/02/18 10:01:13;;;;;;;7.77;2.77;;;;;;;;;;5037899;28;20633;-72
2022/02/18 10:03:41;;;;;;;5.10;2.20;;;;;;;;;;5037959;28;20611;-72
2022/02/18 10:06:09;;;;;;;3.00;2.40;;;;;;;;;;5037767;28;20227;-72
2022/02/18 10:08:47;;;;;;;3.90;2.20;;;;;;;;;;5037584;28;20207;-72
2022/02/18 10:11:15;;;;;;;6.70;2.70;;;;;;;;;;5037754;28;20274;-72
2022/02/18 10:13:43;;;;;;;6.43;2.40;;;;;;;;;;5037761;28;20203;-72
2022/02/18 10:16:12;;;;;;;2.57;1.73;;;;;;;;;;5037517;28;20619;-72
2022/02/18 10:18:48;;;;;;;4.70;2.10;;;;;;;;;;5036081;28;20207;-72
2022/02/18 10:21:16;;;;;;;3.80;2.23;;;;;;;;;;5018047;28;20262;-72
2022/02/18 10:23:46;;;;;;;5.57;2.03;;;;;;;;;;5017536;28;20235;-72
2022/02/18 10:26:14;;;;;;;4.13;2.00;;;;;;;;;;5017819;28;20266;-72
2022/02/18 10:28:42;;;;;;;3.67;2.13;;;;;;;;;;5017418;28;20212;-72
2022/02/18 10:31:10;;;;;;;3.03;2.03;;;;;;;;;;5018287;28;20204;-72
2022/02/18 10:33:39;;;;;;;4.73;1.97;;;;;;;;;;5018129;28;20208;-72
2022/02/18 10:36:15;;;;;;;4.20;2.13;;;;;;;;;;5020179;28;20565;-72
2022/02/18 10:39:18;;;;;;;5.57;2.40;;;;;;;;;;5017505;28;20218;-73
2022/02/18 10:41:53;;;;;;;3.23;2.00;;;;;;;;;;5035186;28;20215;-72
2022/02/18 10:44:21;;;;;;;4.13;2.30;;;;;;;;;;5037686;28;20239;-72
2022/02/18 10:46:55;;;;;;;4.97;2.13;;;;;;;;;;5037261;28;20231;-72
2022/02/18 10:49:23;;;;;;;4.77;2.00;;;;;;;;;;5037920;28;20271;-73
2022/02/18 10:51:52;;;;;;;2.33;2.07;;;;;;;;;;5037687;28;20753;-72
2022/02/18 10:54:28;;;;;;;4.97;2.10;;;;;;;;;;5037741;28;20239;-72
2022/02/18 10:57:11;;;;;;;6.27;2.47;;;;;;;;;;5037417;28;20371;-72
2022/02/18 10:59:41;;;;;;;5.83;2.17;;;;;;;;;;5037513;28;20734;-72
2022/02/18 11:02:09;;;;;;;2.60;1.80;;;;;;;;;;5037338;28;20720;-72
2022/02/18 11:04:37;;;;;;;4.27;2.07;;;;;;;;;;5037246;28;20291;-73
2022/02/18 11:07:08;;;;;;;3.23;2.00;;;;;;;;;;5030044;28;20258;-73
2022/02/18 11:09:39;;;;;;;4.10;2.20;;;;;;;;;;5034337;28;20250;-73
2022/02/18 11:12:08;;;;;;;2.80;1.60;;;;;;;;;;5037325;28;20226;-72
2022/02/18 11:14:37;;;;;;;6.60;2.30;;;;;;;;;;5036962;28;20235;-73
2022/02/18 11:17:07;;;;;;;6.13;2.33;;;;;;;;;;5036824;28;20667;-73
2022/02/18 11:19:35;;;;;;;6.27;2.07;;;;;;;;;;5034899;28;20291;-70
2022/02/18 11:22:14;;;;;;;4.43;2.20;;;;;;;;;;5017204;28;20204;-71
2022/02/18 11:24:45;;;;;;;4.00;2.37;;;;;;;;;;5017410;28;20242;-72
2022/02/18 11:27:14;;;;;;;6.50;2.20;;;;;;;;;;5030758;28;20654;-72
2022/02/18 11:29:42;;;;;;;2.83;1.80;;;;;;;;;;5036910;28;20247;-71
2022/02/18 11:32:15;;;;;;;3.43;1.90;;;;;;;;;;5036975;28;20287;-71
2022/02/18 11:34:55;;;;;;;4.23;2.27;;;;;;;;;;5037210;28;20239;-73
2022/02/18 11:37:44;;;;;;;2.57;1.60;;;;;;;;;;5036696;28;20207;-71
2022/02/18 11:40:21;;;;;;;4.70;2.00;;;;;;;;;;5028890;28;20229;-71
2022/02/18 11:42:56;;;;;;;3.50;1.53;;;;;;;;;;5021066;28;20290;-71
2022/02/18 11:45:40;;;;;;;8.70;1.90;;;;;;;;;;5030001;28;20310;-71
2022/02/18 11:48:29;;;;;;;3.33;1.50;;;;;;;;;;5040684;28;20228;-71
2022/02/18 11:51:06;;;;;;;1.83;1.33;;;;;;;;;;5040493;28;20239;-70
2022/02/18 11:53:44;;;;;;;3.43;1.20;;;;;;;;;;5040088;28;20642;-71
2022/02/18 11:56:14;;;;;;;4.57;1.60;;;;;;;;;;5040482;28;20259;-71
2022/02/18 11:58:48;;;;;;;3.00;1.40;;;;;;;;;;5040656;28;20210;-71
2022/02/18 12:01:16;;;;;;;3.47;1.20;;;;;;;;;;5040407;28;20275;-71
2022/02/18 12:03:59;;;;;;;2.43;1.50;;;;;;;;;;5039939;28;20230;-70
2022/02/18 12:06:30;;;;;;;5.97;1.00;;;;;;;;;;5039534;28;20235;-72
2022/02/18 12:08:59;;;;;;;2.50;1.23;;;;;;;;;;5038526;28;20314;-71
2022/02/18 12:11:27;;;;;;;2.40;1.47;;;;;;;;;;5037722;28;20339;-72
2022/02/18 12:13:56;;;;;;;4.57;1.30;;;;;;;;;;5037620;28;20237;-72
2022/02/18 12:16:25;;;;;;;4.80;1.63;;;;;;;;;;5037787;28;20306;-73
2022/02/18 12:19:07;;;;;;;2.20;1.33;;;;;;;;;;5037729;28;20291;-73
2022/02/18 12:21:50;;;;;;;2.50;1.50;;;;;;;;;;5038489;28;20211;-71
2022/02/18 12:24:39;;;;;;;5.50;1.73;;;;;;;;;;5037792;28;20275;-72
2022/02/18 12:27:27;;;;;;;2.80;1.30;;;;;;;;;;5037478;28;20255;-71
2022/02/18 12:30:00;;;;;;;1.80;1.40;;;;;;;;;;5038319;28;20208;-71
2022/02/18 12:32:28;;;;;;;4.13;1.30;;;;;;;;;;5038914;28;20705;-72
2022/02/18 12:35:00;;;;;;;3.53;0.80;;;;;;;;;;5038030;28;20235;-70
2022/02/18 12:37:28;;;;;;;1.63;1.20;;;;;;;;;;5038483;28;20234;-70
2022/02/18 12:39:57;;;;;;;4.73;1.20;;;;;;;;;;5040042;28;20290;-71
2022/02/18 12:42:26;;;;;;;2.63;1.40;;;;;;;;;;5038887;28;20227;-70
2022/02/18 12:44:55;;;;;;;4.23;2.00;;;;;;;;;;5038269;28;20207;-70
2022/02/18 12:47:26;;;;;;;1.67;1.30;;;;;;;;;;5038295;28;20262;-70
2022/02/18 12:49:54;;;;;;;4.43;1.57;;;;;;;;;;5038240;28;20295;-72
2022/02/18 12:52:26;;;;;;;1.73;1.20;;;;;;;;;;5037603;28;20283;-70
2022/02/18 12:54:55;;;;;;;4.87;1.10;;;;;;;;;;5039167;28;20248;-70
2022/02/18 12:57:24;;;;;;;1.97;1.30;;;;;;;;;;5039425;28;20204;-71
2022/02/18 12:59:56;;;;;;;2.83;1.20;;;;;;;;;;5037783;28;20736;-70
2022/02/18 13:02:38;;;;;;;6.37;1.90;;;;;;;;;;5036291;28;20244;-71
2022/02/18 13:05:07;;;;;;;3.73;1.73;;;;;;;;;;5037324;28;20610;-71
2022/02/18 13:07:36;;;;;;;4.20;1.87;;;;;;;;;;5036644;28;20282;-71
2022/02/18 13:10:05;;;;;;;6.93;1.40;;;;;;;;;;5037065;28;20294;-70
2022/02/18 13:12:34;;;;;;;1.70;1.20;;;;;;;;;;5038694;28;20294;-72
2022/02/18 13:15:06;;;;;;;4.43;1.10;;;;;;;;;;5037169;28;20230;-71
2022/02/18 13:17:34;;;;;;;1.37;1.10;;;;;;;;;;5038454;28;20631;-71
2022/02/18 13:20:04;;;;;;;3.10;1.00;;;;;;;;;;5038866;28;20211;-71
2022/02/18 13:22:33;;;;;;;3.17;1.40;;;;;;;;;;5038057;28;20777;-71
2022/02/18 13:25:16;;;;;;;3.47;1.10;;;;;;;;;;5038491;28;20631;-72
2022/02/18 13:27:44;;;;;;;2.40;1.30;;;;;;;;;;5038831;28;20262;-70
2022/02/18 13:30:12;;;;;;;2.03;1.40;;;;;;;;;;5038703;28;20637;-71
2022/02/18 13:32:40;;;;;;;3.40;1.00;;;;;;;;;;5038626;28;20294;-71
2022/02/18 13:35:10;;;;;;;2.50;1.30;;;;;;;;;;5038680;28;20295;-71
2022/02/18 13:37:38;;;;;;;2.13;1.57;;;;;;;;;;5038206;28;20290;-71
2022/02/18 13:40:06;;;;;;;1.33;1.10;;;;;;;;;;5038310;28;20246;-72
2022/02/18 13:42:47;;;;;;;2.40;1.10;;;;;;;;;;5038459;28;20207;-72
2022/02/18 13:45:15;;;;;;;2.57;1.07;;;;;;;;;;5038496;28;20279;-72
2022/02/18 13:47:44;;;;;;;3.00;1.40;;;;;;;;;;5038440;28;20242;-67
2022/02/18 13:50:13;;;;;;;2.67;1.07;;;;;;;;;;5038308;28;20287;-72
2022/02/18 13:52:42;;;;;;;1.20;1.10;;;;;;;;;;5036439;28;20971;-73
2022/02/18 13:55:11;;;;;;;2.67;1.20;;;;;;;;;;5037152;28;20203;-73
2022/02/18 13:57:39;;;;;;;2.63;1.30;;;;;;;;;;5036892;28;20322;-74
2022/02/18 14:00:10;;;;;;;1.10;1.10;;;;;;;;;;5036758;28;20234;-74
2022/02/18 14:02:46;;;;;;;1.83;1.43;;;;;;;;;;5036461;28;20206;-74
2022/02/18 14:05:27;;;;;;;2.03;1.07;;;;;;;;;;5034373;28;20258;-74
2022/02/18 14:08:05;;;;;;;1.60;1.17;;;;;;;;;;5036576;28;20249;-74
2022/02/18 14:10:39;;;;;;;2.30;1.30;;;;;;;;;;5036199;28;20675;-74
2022/02/18 14:13:07;;;;;;;3.30;1.40;;;;;;;;;;5036408;28;20245;-73
2022/02/18 14:15:35;;;;;;;2.23;1.10;;;;;;;;;;5036692;28;20334;-73
2022/02/18 14:18:06;;;;;;;1.27;1.10;;;;;;;;;;5037824;28;20382;-73
2022/02/18 14:20:36;;;;;;;2.00;1.27;;;;;;;;;;5036141;28;20238;-72
2022/02/18 14:23:04;;;;;;;3.83;1.20;;;;;;;;;;5035267;28;20228;-72
2022/02/18 14:25:34;;;;;;;1.47;1.27;;;;;;;;;;5035491;28;20280;-73
2022/02/18 14:28:11;;;;;;;1.70;1.30;;;;;;;;;;5035406;28;20204;-73
2022/02/18 14:30:42;;;;;;;2.83;1.20;;;;;;;;;;5035614;28;20286;-73
2022/02/18 14:33:19;;;;;;;1.83;1.10;;;;;;;;;;5035584;28;20272;-73
2022/02/18 14:35:49;;;;;;;4.70;1.30;;;;;;;;;;5035405;28;20259;-74
2022/02/18 14:38:17;;;;;;;2.37;1.40;;;;;;;;;;5035329;28;20249;-72
2022/02/18 14:40:46;;;;;;;1.50;1.20;;;;;;;;;;5035657;28;20231;-74
2022/02/18 14:43:14;;;;;;;2.40;1.20;;;;;;;;;;5035342;28;20203;-73
2022/02/18 14:45:42;;;;;;;1.83;1.40;;;;;;;;;;5035098;28;20651;-74
2022/02/18 14:48:11;;;;;;;3.50;1.00;;;;;;;;;;5035042;28;20225;-74
2022/02/18 14:50:41;;;;;;;4.63;1.53;;;;;;;;;;5035782;28;20257;-72